Orbital elements of SUPERBIRD-C2
| Launched | 13 August 2008 |
| Flight ended | – |
| Launch site | Europe's Spaceport, Kourou, French Guiana |
| Owner | Japan |
| NORAD ID | 33274 |
| Alternative names |
SUPERBIRD-7 |
| Date fetched |
Epoch osculation |
Inc. [°] |
Ecc. | RA asc node [hr] |
Arg Peri. [°] |
Mean anom [°] |
Mean motion [rev/day] |
Abs. mag |
| Date fetched |
Epoch osculation |
Inc. [°] |
Ecc. | RA asc node [hr] |
Arg Peri. [°] |
Mean anom [°] |
Mean motion [rev/day] |
Abs. mag |
| 2026 May 01 17:56 | 2026 May 01 12:17:24 | 2.2420 | 0.00051 | 5.4546 | 6.1241 | 91.8624 | 1.00271 | – |
| 2026 Apr 30 17:56 | 2026 Apr 30 12:19:56 | 2.2396 | 0.00049 | 5.4553 | 4.7016 | 91.8624 | 1.00271 | – |
| 2026 Apr 29 17:57 | 2026 Apr 29 12:22:32 | 2.2372 | 0.00048 | 5.4561 | 3.9795 | 91.8624 | 1.00271 | – |
| 2026 Apr 28 17:56 | 2026 Apr 28 12:09:51 | 2.2347 | 0.00047 | 5.4568 | 3.4472 | 91.8624 | 1.00271 | – |
| 2026 Apr 27 17:58 | 2026 Apr 27 11:21:22 | 2.2321 | 0.00046 | 5.4575 | 2.4262 | 91.8624 | 1.00271 | – |
| 2026 Apr 26 17:58 | 2026 Apr 26 12:34:51 | 2.2297 | 0.00044 | 5.4582 | 1.9298 | 91.8624 | 1.00271 | – |
| 2026 Apr 25 17:58 | 2026 Apr 25 12:32:43 | 2.2270 | 0.00044 | 5.4589 | 1.6725 | 91.8624 | 1.00271 | – |
| 2026 Apr 24 17:59 | 2026 Apr 24 12:35:21 | 2.2243 | 0.00042 | 5.4596 | 1.5373 | 91.8624 | 1.00271 | – |
| 2026 Apr 23 17:57 | 2026 Apr 23 06:09:38 | 2.2208 | 0.00041 | 5.4607 | 3.1803 | 91.8624 | 1.00271 | – |
| 2026 Apr 22 17:57 | 2026 Apr 22 06:39:38 | 2.2180 | 0.00040 | 5.4615 | 3.3027 | 91.8624 | 1.00271 | – |
| 2026 Apr 21 17:57 | 2026 Apr 21 13:20:12 | 2.2159 | 0.00040 | 5.4621 | 3.4079 | 91.8624 | 1.00271 | – |
| 2026 Apr 20 17:57 | 2026 Apr 20 11:02:54 | 2.2127 | 0.00039 | 5.4629 | 2.4192 | 91.8624 | 1.00271 | – |
| 2026 Apr 19 17:58 | 2026 Apr 19 11:05:28 | 2.2097 | 0.00039 | 5.4637 | 2.7365 | 91.8624 | 1.00271 | – |
| 2026 Apr 18 17:56 | 2026 Apr 18 05:59:59 | 2.2063 | 0.00038 | 5.4650 | 1.4588 | 91.8624 | 1.00271 | – |
| 2026 Apr 16 17:57 | 2026 Apr 15 21:31:39 | 2.1995 | 0.00038 | 5.4671 | 359.4795 | 91.8624 | 1.00271 | – |
| 2026 Apr 14 17:57 | 2026 Apr 14 10:43:38 | 2.1956 | 0.00038 | 5.4685 | 359.1371 | 91.8624 | 1.00271 | – |
| 2026 Apr 13 17:57 | 2026 Apr 13 05:00:38 | 2.1924 | 0.00039 | 5.4698 | 3.5242 | 91.8624 | 1.00271 | – |
| 2026 Apr 12 17:57 | 2026 Apr 12 11:33:38 | 2.1905 | 0.00039 | 5.4705 | 2.9772 | 91.8624 | 1.00271 | – |
| 2026 Apr 11 17:57 | 2026 Apr 11 11:47:38 | 2.1880 | 0.00038 | 5.4714 | 2.2682 | 91.8624 | 1.00271 | – |
| 2026 Apr 10 17:58 | 2026 Apr 10 06:20:26 | 2.1850 | 0.00038 | 5.4724 | 1.3163 | 91.8624 | 1.00271 | – |
| 2026 Apr 09 18:01 | 2026 Apr 09 07:29:38 | 2.1827 | 0.00037 | 5.4733 | 0.5652 | 91.8624 | 1.00271 | – |
| 2026 Apr 08 17:57 | 2026 Apr 08 06:25:21 | 2.1801 | 0.00037 | 5.4742 | 359.6908 | 91.8624 | 1.00271 | – |
| 2026 Apr 07 17:57 | 2026 Apr 07 04:45:13 | 2.1775 | 0.00036 | 5.4752 | 358.8233 | 91.8624 | 1.00271 | – |
| 2026 Apr 06 17:57 | 2026 Apr 06 04:47:36 | 2.1752 | 0.00035 | 5.4761 | 357.9874 | 91.8624 | 1.00271 | – |
| 2026 Apr 05 17:56 | 2026 Apr 05 07:52:38 | 2.1732 | 0.00034 | 5.4769 | 357.3409 | 91.8624 | 1.00271 | – |
| 2026 Apr 04 17:57 | 2026 Apr 03 22:01:49 | 2.1699 | 0.00033 | 5.4784 | 0.2010 | 91.8624 | 1.00271 | – |